Hauptseite
METAR-TAF:

METAR-TAF

Flughäfen :

Flughafen Dortmund

Dortmund, Deutschland

Breite: 51-31N, Länge: 007-37E, Höhe: 127 m

Beobachtung

Neuester Wetterbericht von vor 44 Minuten, um 03:20 UTC
Wind 8 kt aus Ost/Nordost
Temperatur 0°C
Luftfeuchtigkeit 86%
Luftdruck 1012 hPa
Sichtweite 10 km oder mehr

METAR: EDLW 210320Z AUTO 07008KT 9999 // NCD M00/M02 Q1012

Zeit: 05:04 (04:04 UTC)

Prognose

Neuester Wetterbericht von vor 11 Stunden und 4 Minuten, um 17:00 UTC
Gültige Prognose vom 20 um 18 UTC bis 21 um 18 UTC
Wind 11 kt aus Ost/Nordost
Sichtweite 10 km oder mehr
Durchbrochene Bewölkung in der Höhe von 4000 ft
Zeitweise
vom 20 um 18 UTC bis 20 um 21 UTC
Durchbrochene Bewölkung in der Höhe von 600 ft
Übergehend zu
vom 21 um 03 UTC bis 21 um 07 UTC
Wind 6 kt aus Ost/Nordost

TAF: EDLW 201700Z 2018/2118 07011KT 9999 BKN040 TEMPO 2018/2021 BKN006 BECMG 2103/2107 07006KT

Wetterbeobachtungen und Prognosen von mehr als 4000 Flughäfen (METAR und TAF Bericht).

Die verfügbaren Stationen werden durch gelbe und rote Markierungen auf der Karte dargestellt.

Führen Sie die Maus auf sie, um den Namen der Station zu sehen.

Darauf klicken, um die Beobachtung von Wetterbeobachtungen und Prognosen zu sehen.

Um die Karte zu ändern : klicken Sie auf den grünen Tasten mit einem schwarzen Kreuz Zum Vergrößern, auf den grünen Button mit einem Gedankenstrich zu verkleinern, oder auf die grünen Pfeile für benachbarte Karten.


METAR-TAF: